Time;durP1;ratioP1;P1;durP2;ratioP2;P2;SDS_P1;SDS_P2;PMS_P1;PMS_P2;Temp;Humidity;BMP_temperature;BMP_pressure;BME280_temperature;BME280_humidity;BME280_pressure;Samples;Min_cycle;Max_cycle;Signal;HPM_P1;HPM_P2
2021/12/20 00:00:24;;;;;;;42.70;5.63;;;5.90;99.90;;;;;;5074395;28;20118;-91
2021/12/20 00:02:54;;;;;;;40.67;6.22;;;5.90;99.90;;;;;;5074798;28;20062;-93
2021/12/20 00:05:21;;;;;;;32.63;5.75;;;5.90;99.90;;;;;;5074434;28;20035;-93
2021/12/20 00:07:47;;;;;;;35.85;5.38;;;5.80;99.90;;;;;;5075159;28;20075;-93
2021/12/20 00:10:14;;;;;;;44.13;6.45;;;5.70;99.90;;;;;;5075291;28;20044;-92
2021/12/20 00:12:40;;;;;;;39.97;5.43;;;5.70;99.90;;;;;;5074555;28;20040;-92
2021/12/20 00:15:06;;;;;;;35.90;5.93;;;5.70;99.90;;;;;;5075229;28;20050;-92
2021/12/20 00:17:32;;;;;;;40.42;6.03;;;5.70;99.90;;;;;;5074580;28;20111;-92
2021/12/20 00:19:58;;;;;;;42.67;5.75;;;5.70;99.90;;;;;;5090892;28;20071;-92
2021/12/20 00:22:23;;;;;;;37.33;5.63;;;5.70;99.90;;;;;;5091670;28;20044;-92
2021/12/20 00:24:49;;;;;;;35.30;5.53;;;5.70;99.90;;;;;;5074406;28;20047;-92
2021/12/20 00:27:19;;;;;;;42.17;6.10;;;5.70;99.90;;;;;;5074291;28;20051;-92
2021/12/20 00:29:46;;;;;;;32.15;5.35;;;5.70;99.90;;;;;;5091333;28;20051;-93
2021/12/20 00:32:12;;;;;;;38.35;5.95;;;5.70;99.90;;;;;;5073802;28;20032;-92
2021/12/20 00:34:37;;;;;;;42.38;6.53;;;5.70;99.90;;;;;;5093554;28;20051;-93
2021/12/20 00:37:06;;;;;;;36.53;5.82;;;5.70;99.90;;;;;;5078444;28;20043;-91
2021/12/20 00:42:16;;;;;;;46.38;5.65;;;5.70;99.90;;;;;;5095022;28;20044;-91
2021/12/20 00:44:41;;;;;;;38.90;5.70;;;5.70;99.90;;;;;;5077814;28;20031;-92
2021/12/20 00:47:07;;;;;;;43.38;5.55;;;5.70;99.90;;;;;;5077935;28;20040;-92
2021/12/20 00:49:33;;;;;;;44.00;5.40;;;5.70;99.90;;;;;;5094759;28;20046;-92
2021/12/20 00:51:58;;;;;;;45.53;5.25;;;5.70;99.90;;;;;;5095160;28;20382;-92
2021/12/20 00:54:24;;;;;;;42.67;4.72;;;5.70;99.90;;;;;;5077956;28;20081;-92
2021/12/20 00:56:50;;;;;;;39.60;5.95;;;5.70;99.90;;;;;;5075275;28;20089;-93
2021/12/20 00:59:16;;;;;;;47.20;5.97;;;5.70;99.90;;;;;;5078044;28;20489;-92
2021/12/20 01:01:41;;;;;;;39.42;5.53;;;5.70;99.90;;;;;;5077824;28;20482;-92
2021/12/20 01:04:08;;;;;;;36.85;5.80;;;5.80;99.90;;;;;;5077629;28;20101;-92
2021/12/20 01:06:33;;;;;;;40.28;5.40;;;5.70;99.90;;;;;;5077761;28;20081;-92
2021/12/20 01:08:59;;;;;;;37.75;5.20;;;5.80;99.90;;;;;;5077693;28;20040;-91
2021/12/20 01:11:27;;;;;;;31.10;4.90;;;5.80;99.90;;;;;;5077901;28;20035;-91
2021/12/20 01:13:54;;;;;;;44.55;5.47;;;5.80;99.90;;;;;;5076974;28;20133;-92
2021/12/20 01:16:29;;;;;;;37.92;6.28;;;5.80;99.90;;;;;;5075515;28;20035;-91
2021/12/20 01:18:56;;;;;;;47.95;5.90;;;5.80;99.90;;;;;;5076647;28;20047;-92
2021/12/20 01:21:21;;;;;;;52.33;6.68;;;5.80;99.90;;;;;;5077926;28;20047;-91
2021/12/20 01:23:47;;;;;;;34.95;4.82;;;5.70;99.90;;;;;;5077473;28;20048;-91
2021/12/20 01:26:12;;;;;;;40.53;5.47;;;5.80;99.90;;;;;;5078045;28;20039;-92
2021/12/20 01:28:42;;;;;;;34.88;5.00;;;5.80;99.90;;;;;;5077185;28;20047;-92
2021/12/20 01:31:08;;;;;;;46.55;5.88;;;5.70;99.90;;;;;;5070383;28;20042;-92
2021/12/20 01:33:33;;;;;;;40.40;5.85;;;5.70;99.90;;;;;;5077518;28;20039;-91
2021/12/20 01:35:59;;;;;;;40.95;5.68;;;5.70;99.90;;;;;;5076943;28;20071;-92
2021/12/20 01:38:25;;;;;;;40.80;5.75;;;5.70;99.90;;;;;;5077329;28;20501;-92
2021/12/20 01:40:51;;;;;;;39.03;5.05;;;5.70;99.90;;;;;;5077000;28;20063;-92
2021/12/20 01:43:17;;;;;;;38.08;5.82;;;5.70;99.90;;;;;;5077470;28;20036;-92
2021/12/20 01:45:47;;;;;;;35.50;4.75;;;5.70;99.90;;;;;;5076256;28;20037;-92
2021/12/20 01:48:15;;;;;;;35.20;5.00;;;5.60;99.90;;;;;;5091661;28;20475;-91
2021/12/20 01:53:13;;;;;;;48.13;5.75;;;5.60;99.90;;;;;;5094514;28;20092;-92
2021/12/20 01:55:39;;;;;;;32.22;5.47;;;5.60;99.90;;;;;;5076996;28;20047;-92
2021/12/20 01:58:05;;;;;;;37.38;4.53;;;5.50;99.90;;;;;;5076759;28;20043;-91
2021/12/20 02:00:31;;;;;;;43.05;5.03;;;5.60;99.90;;;;;;5076556;28;20031;-92
2021/12/20 02:03:02;;;;;;;37.55;5.05;;;5.50;99.90;;;;;;5076752;28;20044;-92
2021/12/20 02:08:15;;;;;;;33.20;4.22;;;5.60;99.90;;;;;;5093166;28;20394;-92
2021/12/20 02:10:43;;;;;;;27.30;4.60;;;5.60;99.90;;;;;;5076975;28;20124;-92
2021/12/20 02:13:09;;;;;;;32.42;4.50;;;5.50;99.90;;;;;;5077310;28;20050;-93
2021/12/20 02:15:34;;;;;;;26.35;4.38;;;5.50;99.90;;;;;;5076613;28;20036;-93
2021/12/20 02:18:00;;;;;;;28.20;4.82;;;5.50;99.90;;;;;;5076754;28;20231;-92
2021/12/20 02:20:31;;;;;;;34.15;4.40;;;5.50;99.90;;;;;;5077028;28;20039;-93
2021/12/20 02:22:59;;;;;;;27.77;4.40;;;5.50;99.90;;;;;;5076324;28;20476;-93
2021/12/20 02:25:27;;;;;;;33.22;4.88;;;5.50;99.90;;;;;;5076734;28;20562;-91
2021/12/20 02:27:53;;;;;;;32.97;5.10;;;5.50;99.90;;;;;;5076297;28;20048;-92
2021/12/20 02:38:41;;;;;;;29.77;5.20;;;5.40;99.90;;;;;;5031726;28;20045;-93
2021/12/20 02:41:12;;;;;;;25.20;4.43;;;5.40;99.90;;;;;;5023025;28;20051;-92
2021/12/20 02:43:41;;;;;;;27.00;3.83;;;5.40;99.90;;;;;;5026897;28;20051;-92
2021/12/20 02:46:32;;;;;;;30.02;4.93;;;5.30;99.90;;;;;;5029364;28;20055;-92
2021/12/20 02:48:58;;;;;;;29.30;4.60;;;5.30;99.90;;;;;;5018378;28;20150;-93
2021/12/20 02:51:26;;;;;;;25.15;3.53;;;5.30;99.90;;;;;;5031661;28;20049;-93
2021/12/20 02:53:52;;;;;;;25.65;3.58;;;5.30;99.90;;;;;;5031125;28;20045;-93
2021/12/20 02:56:18;;;;;;;38.53;4.45;;;5.30;99.90;;;;;;5031161;28;20045;-91
2021/12/20 02:58:44;;;;;;;29.98;4.10;;;5.30;99.90;;;;;;5028997;28;20104;-92
2021/12/20 03:01:09;;;;;;;29.20;4.95;;;5.30;99.90;;;;;;5003916;28;20056;-92
2021/12/20 03:03:35;;;;;;;29.55;4.63;;;5.30;99.90;;;;;;5007116;28;20667;-92
2021/12/20 03:06:09;;;;;;;28.77;4.07;;;5.30;99.90;;;;;;5010925;28;20041;-90
2021/12/20 03:08:34;;;;;;;28.55;3.92;;;5.20;99.90;;;;;;5014365;28;20477;-93
2021/12/20 03:11:00;;;;;;;38.58;4.35;;;5.30;99.90;;;;;;5031217;28;20041;-92
2021/12/20 03:13:26;;;;;;;35.58;5.15;;;5.30;99.90;;;;;;5024768;28;20055;-92
2021/12/20 03:15:51;;;;;;;24.23;3.67;;;5.30;99.90;;;;;;5075665;28;20036;-92
2021/12/20 03:18:17;;;;;;;27.17;3.55;;;5.30;99.90;;;;;;5075703;28;20523;-92
2021/12/20 03:20:42;;;;;;;29.35;4.60;;;5.20;99.90;;;;;;5079240;27;20031;-92
2021/12/20 03:23:08;;;;;;;20.25;3.67;;;5.10;99.90;;;;;;5077029;27;20039;-92
2021/12/20 03:25:33;;;;;;;26.40;4.05;;;5.10;99.90;;;;;;5077663;27;20142;-93
2021/12/20 03:27:59;;;;;;;30.13;3.88;;;5.10;99.90;;;;;;5075564;27;20773;-92
2021/12/20 03:30:25;;;;;;;25.23;3.40;;;5.10;99.90;;;;;;5076052;27;20061;-93
2021/12/20 03:32:51;;;;;;;24.60;3.28;;;5.10;99.90;;;;;;5077450;27;20050;-92
2021/12/20 03:35:17;;;;;;;24.73;3.53;;;5.10;99.90;;;;;;5075447;27;20044;-92
2021/12/20 03:37:43;;;;;;;22.08;3.58;;;5.00;99.90;;;;;;5074254;27;20050;-92
2021/12/20 03:40:09;;;;;;;24.02;3.10;;;5.00;99.90;;;;;;5072896;28;20023;-93
2021/12/20 03:42:36;;;;;;;22.13;3.22;;;4.90;99.90;;;;;;5074402;28;20048;-93
2021/12/20 03:45:02;;;;;;;19.80;3.33;;;4.90;99.90;;;;;;5074743;28;20042;-93
2021/12/20 03:47:27;;;;;;;17.02;3.00;;;4.90;99.90;;;;;;5075252;28;20350;-92
2021/12/20 03:49:53;;;;;;;15.25;2.67;;;4.80;99.90;;;;;;5075009;28;20042;-93
2021/12/20 03:52:18;;;;;;;17.75;3.05;;;4.80;99.90;;;;;;5075677;28;20074;-93
2021/12/20 03:54:44;;;;;;;13.02;3.20;;;4.80;99.90;;;;;;5075045;28;20070;-94
2021/12/20 03:57:10;;;;;;;21.23;2.78;;;4.80;99.90;;;;;;5075567;28;20040;-93
2021/12/20 03:59:35;;;;;;;18.73;3.85;;;4.80;99.90;;;;;;5075070;28;20043;-92
2021/12/20 04:02:01;;;;;;;26.98;4.18;;;4.80;99.90;;;;;;5075215;28;20492;-94
2021/12/20 04:04:27;;;;;;;28.25;3.72;;;4.80;99.90;;;;;;5074990;28;20505;-93
2021/12/20 04:06:53;;;;;;;12.60;3.08;;;4.70;99.90;;;;;;5074655;28;20039;-94
2021/12/20 04:09:18;;;;;;;17.58;2.85;;;4.70;99.90;;;;;;5078090;28;20126;-93
2021/12/20 04:11:44;;;;;;;16.02;3.20;;;4.70;99.90;;;;;;5077873;28;20040;-92
2021/12/20 04:14:10;;;;;;;26.40;3.67;;;4.70;99.90;;;;;;5079132;28;20049;-94
2021/12/20 04:16:38;;;;;;;15.82;2.55;;;4.70;99.90;;;;;;5078853;28;20039;-93
2021/12/20 04:19:04;;;;;;;12.35;2.65;;;4.60;99.90;;;;;;5079054;28;20093;-92
2021/12/20 04:21:30;;;;;;;18.65;3.17;;;4.50;99.90;;;;;;5079567;28;20087;-93
2021/12/20 04:23:56;;;;;;;20.80;2.60;;;4.50;99.90;;;;;;5078978;28;20039;-92
2021/12/20 04:26:22;;;;;;;22.00;3.20;;;4.50;99.90;;;;;;5077929;28;20493;-93
2021/12/20 04:28:47;;;;;;;22.83;3.00;;;4.40;99.90;;;;;;5078751;28;20063;-93
2021/12/20 04:31:13;;;;;;;14.57;3.22;;;4.40;99.90;;;;;;5078805;28;20039;-92
2021/12/20 04:33:39;;;;;;;26.45;3.10;;;4.40;99.90;;;;;;5078620;28;20039;-92
2021/12/20 04:36:05;;;;;;;25.98;3.45;;;4.30;99.90;;;;;;5078583;28;20031;-92
2021/12/20 04:38:31;;;;;;;22.13;3.35;;;4.30;99.90;;;;;;5079002;28;20126;-92
2021/12/20 04:40:57;;;;;;;23.83;3.08;;;4.20;99.90;;;;;;5078176;28;20043;-93
2021/12/20 04:43:23;;;;;;;12.43;2.40;;;4.20;99.90;;;;;;5078276;28;20040;-92
2021/12/20 04:45:49;;;;;;;24.88;3.30;;;4.20;99.90;;;;;;5078586;28;20042;-92
2021/12/20 04:48:14;;;;;;;18.77;3.00;;;4.10;99.90;;;;;;5078648;28;20042;-92
2021/12/20 04:50:40;;;;;;;16.23;2.92;;;4.10;99.90;;;;;;5078156;28;20489;-93
2021/12/20 04:53:06;;;;;;;17.13;3.03;;;4.10;99.90;;;;;;5075811;28;20043;-92
2021/12/20 04:55:32;;;;;;;15.27;2.53;;;4.10;99.90;;;;;;5077675;28;20047;-91
2021/12/20 04:58:00;;;;;;;23.02;3.63;;;4.00;99.90;;;;;;5078441;28;20725;-93
2021/12/20 05:00:29;;;;;;;17.15;2.25;;;4.10;99.90;;;;;;5078291;28;20121;-93
2021/12/20 05:02:55;;;;;;;14.35;3.13;;;4.00;99.90;;;;;;5077920;28;20043;-92
2021/12/20 05:05:21;;;;;;;11.95;2.78;;;4.00;99.90;;;;;;5077990;28;20040;-93
2021/12/20 05:07:47;;;;;;;15.43;2.80;;;4.00;99.90;;;;;;5077227;28;20121;-93
2021/12/20 05:10:25;;;;;;;14.68;2.90;;;4.00;99.90;;;;;;5077337;28;20047;-93
2021/12/20 05:12:54;;;;;;;15.30;2.88;;;3.90;99.90;;;;;;5078034;28;20039;-93
2021/12/20 05:15:20;;;;;;;15.73;2.70;;;3.90;99.90;;;;;;5073087;28;20042;-93
2021/12/20 05:17:46;;;;;;;12.30;2.22;;;3.80;99.90;;;;;;5077587;28;20032;-92
2021/12/20 05:20:12;;;;;;;19.05;3.20;;;3.80;99.90;;;;;;5077499;28;20038;-92
2021/12/20 05:22:38;;;;;;;12.38;2.47;;;3.70;99.90;;;;;;5077741;28;20492;-92
2021/12/20 05:25:04;;;;;;;16.23;2.92;;;3.70;99.90;;;;;;5076195;28;20118;-93
2021/12/20 05:27:30;;;;;;;12.55;2.70;;;3.60;99.90;;;;;;5077477;28;20079;-91
2021/12/20 05:29:55;;;;;;;21.13;2.92;;;3.60;99.90;;;;;;5077260;28;20062;-92
2021/12/20 05:32:21;;;;;;;22.38;3.10;;;3.50;99.90;;;;;;5077627;28;20031;-93
2021/12/20 05:34:47;;;;;;;16.10;3.25;;;3.50;99.90;;;;;;5077276;28;20043;-92
2021/12/20 05:37:13;;;;;;;13.88;2.60;;;3.40;99.90;;;;;;5077107;28;20489;-93
2021/12/20 05:39:40;;;;;;;16.35;3.30;;;3.30;99.90;;;;;;5074552;28;20377;-93
2021/12/20 05:42:06;;;;;;;15.93;3.10;;;3.20;99.90;;;;;;5077155;28;20123;-92
2021/12/20 05:44:32;;;;;;;11.35;2.53;;;3.20;99.90;;;;;;5077540;28;20040;-92
2021/12/20 05:46:58;;;;;;;11.10;2.45;;;3.10;99.90;;;;;;5077505;28;20453;-93
2021/12/20 05:49:23;;;;;;;18.90;2.67;;;3.10;99.90;;;;;;5077465;28;20051;-93
2021/12/20 05:51:49;;;;;;;18.25;3.17;;;3.00;99.90;;;;;;5077377;28;20046;-92
2021/12/20 05:54:15;;;;;;;14.15;2.70;;;3.00;99.90;;;;;;5070274;28;20765;-93
2021/12/20 05:56:40;;;;;;;14.27;2.90;;;2.90;99.90;;;;;;5077148;28;20067;-92
2021/12/20 05:59:06;;;;;;;17.08;2.45;;;2.90;99.90;;;;;;5070005;28;20044;-92
2021/12/20 06:01:31;;;;;;;12.55;2.63;;;2.80;99.90;;;;;;5077318;28;20055;-92
2021/12/20 06:03:57;;;;;;;13.55;3.30;;;2.80;99.90;;;;;;5076664;28;20237;-92
2021/12/20 06:06:23;;;;;;;12.90;2.63;;;2.70;99.90;;;;;;5077023;28;20042;-92
2021/12/20 06:08:49;;;;;;;11.60;2.53;;;2.70;99.90;;;;;;5075800;28;20477;-91
2021/12/20 06:11:14;;;;;;;12.88;2.65;;;2.60;99.90;;;;;;5076938;28;20080;-92
2021/12/20 06:13:40;;;;;;;15.52;2.90;;;2.50;99.90;;;;;;5076344;28;20039;-92
2021/12/20 06:16:06;;;;;;;11.38;2.72;;;2.50;99.90;;;;;;5076758;28;20473;-91
2021/12/20 06:18:31;;;;;;;11.00;2.30;;;2.40;99.90;;;;;;5076696;28;20031;-91
2021/12/20 06:20:57;;;;;;;14.63;3.10;;;2.40;99.90;;;;;;5074342;28;20143;-91
2021/12/20 06:23:22;;;;;;;9.55;2.63;;;2.40;99.90;;;;;;5076374;28;20044;-91
2021/12/20 06:25:48;;;;;;;9.95;2.28;;;2.30;99.90;;;;;;5075979;28;20439;-92
2021/12/20 06:28:13;;;;;;;13.63;2.42;;;2.30;99.90;;;;;;5076348;28;20394;-91
2021/12/20 06:30:39;;;;;;;14.65;2.67;;;2.30;99.90;;;;;;5076454;28;20062;-91
2021/12/20 06:33:05;;;;;;;13.15;2.47;;;2.20;99.90;;;;;;5076558;28;20028;-90
2021/12/20 06:35:31;;;;;;;13.50;2.80;;;2.20;99.90;;;;;;5076293;28;20039;-89
2021/12/20 06:38:01;;;;;;;15.60;2.65;;;2.10;99.90;;;;;;5071247;28;20032;-89
2021/12/20 06:40:28;;;;;;;12.93;2.60;;;2.10;99.90;;;;;;5069881;28;20456;-90
2021/12/20 06:42:54;;;;;;;14.60;3.78;;;2.10;99.90;;;;;;5070299;28;20097;-90
2021/12/20 06:45:20;;;;;;;16.10;3.00;;;2.00;99.90;;;;;;5070766;28;20636;-89
2021/12/20 06:47:46;;;;;;;18.80;4.05;;;2.00;99.90;;;;;;5090469;28;20036;-90
2021/12/20 06:50:11;;;;;;;13.05;3.58;;;2.00;99.90;;;;;;5065738;28;20550;-90
2021/12/20 06:52:37;;;;;;;22.10;4.93;;;1.90;99.90;;;;;;5068436;28;20039;-90
2021/12/20 06:55:03;;;;;;;21.65;3.50;;;1.90;99.90;;;;;;5074550;28;20042;-90
2021/12/20 06:57:29;;;;;;;14.40;3.50;;;1.90;99.90;;;;;;5072576;28;20123;-89
2021/12/20 06:59:54;;;;;;;15.90;3.80;;;1.90;99.90;;;;;;5074089;28;20570;-90
2021/12/20 07:02:20;;;;;;;15.43;3.72;;;1.80;99.90;;;;;;5072494;28;20063;-90
2021/12/20 07:04:45;;;;;;;18.27;5.00;;;1.80;99.90;;;;;;5070766;28;20515;-90
2021/12/20 07:07:11;;;;;;;19.80;3.78;;;1.80;99.90;;;;;;5070379;28;20044;-90
2021/12/20 07:09:36;;;;;;;19.00;5.28;;;1.70;99.90;;;;;;5073724;28;20480;-89
2021/12/20 07:12:03;;;;;;;12.63;3.92;;;1.70;99.90;;;;;;5068347;28;20043;-90
2021/12/20 07:14:30;;;;;;;14.23;3.47;;;1.60;99.90;;;;;;5058899;28;20130;-89
2021/12/20 07:16:56;;;;;;;14.75;3.60;;;1.60;99.90;;;;;;5087180;28;20036;-89
2021/12/20 07:19:22;;;;;;;15.95;4.13;;;1.60;99.90;;;;;;5077231;28;20039;-90
2021/12/20 07:21:48;;;;;;;13.00;3.17;;;1.50;99.90;;;;;;5078931;27;20046;-89
2021/12/20 07:24:13;;;;;;;12.35;3.45;;;1.50;99.90;;;;;;5075633;28;20042;-89
2021/12/20 07:26:43;;;;;;;18.27;3.45;;;1.50;99.90;;;;;;5076365;27;20556;-89
2021/12/20 07:29:09;;;;;;;13.57;3.00;;;1.50;99.90;;;;;;5079379;27;20589;-89
2021/12/20 07:31:35;;;;;;;11.65;3.55;;;1.50;99.90;;;;;;5072114;28;20120;-88
2021/12/20 07:34:01;;;;;;;14.95;3.30;;;1.50;99.90;;;;;;5070702;28;20050;-89
2021/12/20 07:36:26;;;;;;;17.83;3.42;;;1.40;99.90;;;;;;5064789;28;20069;-89
2021/12/20 07:38:52;;;;;;;16.52;3.35;;;1.40;99.90;;;;;;5073980;28;20048;-88
2021/12/20 07:41:19;;;;;;;13.88;3.47;;;1.40;99.90;;;;;;5075313;28;20040;-90
2021/12/20 07:43:48;;;;;;;15.90;3.17;;;1.40;99.90;;;;;;5073457;28;20103;-89
2021/12/20 07:46:14;;;;;;;16.25;3.30;;;1.40;99.90;;;;;;5065567;28;20031;-89
2021/12/20 07:48:39;;;;;;;15.15;3.70;;;1.30;99.90;;;;;;5070112;28;20031;-89
2021/12/20 07:51:05;;;;;;;18.13;3.38;;;1.30;99.90;;;;;;5072661;28;20082;-89
2021/12/20 07:53:31;;;;;;;9.13;3.00;;;1.30;99.90;;;;;;5064837;28;20047;-88
2021/12/20 07:55:56;;;;;;;14.15;3.03;;;1.30;99.90;;;;;;5071580;28;20170;-90
2021/12/20 07:58:22;;;;;;;13.43;2.83;;;1.30;99.90;;;;;;5065116;28;20060;-89
2021/12/20 08:00:48;;;;;;;17.75;3.47;;;1.20;99.90;;;;;;5075141;28;20043;-90
2021/12/20 08:03:14;;;;;;;10.30;3.47;;;1.20;99.90;;;;;;5063892;28;20487;-87
2021/12/20 08:05:39;;;;;;;19.45;4.38;;;1.10;99.90;;;;;;5072476;28;20039;-88
2021/12/20 08:08:06;;;;;;;18.77;4.28;;;1.10;99.90;;;;;;5061437;28;20043;-92
2021/12/20 08:10:32;;;;;;;16.38;3.50;;;1.10;99.90;;;;;;5068838;28;20606;-89
2021/12/20 08:12:58;;;;;;;22.02;3.15;;;1.10;99.90;;;;;;5066698;28;20044;-91
2021/12/20 08:15:26;;;;;;;37.75;3.15;;;1.10;99.90;;;;;;5073719;28;20044;-91
2021/12/20 08:17:52;;;;;;;12.55;2.95;;;1.00;99.90;;;;;;5075656;28;20044;-91
2021/12/20 08:20:19;;;;;;;4.75;1.90;;;1.00;99.90;;;;;;5067669;28;20044;-91
2021/12/20 08:22:46;;;;;;;14.90;2.50;;;0.90;99.90;;;;;;5075163;28;20036;-90
2021/12/20 08:25:12;;;;;;;8.40;2.22;;;1.00;99.90;;;;;;5070415;28;20039;-90
2021/12/20 08:27:39;;;;;;;7.32;2.20;;;0.90;99.90;;;;;;5074855;28;20054;-89
2021/12/20 08:30:05;;;;;;;3.65;2.10;;;1.00;99.90;;;;;;5073678;28;20406;-90
2021/12/20 08:32:31;;;;;;;18.02;2.42;;;1.00;99.90;;;;;;5075204;28;20039;-91
2021/12/20 08:34:57;;;;;;;27.83;2.42;;;1.00;99.90;;;;;;5076069;28;20043;-92
2021/12/20 08:37:23;;;;;;;6.65;2.00;;;1.00;99.90;;;;;;5070640;28;20135;-90
2021/12/20 08:39:49;;;;;;;9.25;1.90;;;1.00;99.90;;;;;;5074829;28;20047;-91
2021/12/20 08:42:14;;;;;;;5.50;1.95;;;1.00;99.90;;;;;;5074893;28;20474;-89
2021/12/20 08:44:40;;;;;;;5.72;1.83;;;1.00;99.90;;;;;;5074590;28;20126;-95
2021/12/20 08:47:06;;;;;;;2.55;1.40;;;1.10;99.90;;;;;;5074350;28;20450;-91
2021/12/20 08:49:31;;;;;;;4.70;1.40;;;1.10;99.90;;;;;;5066752;28;20139;-93
2021/12/20 08:51:58;;;;;;;3.83;1.40;;;1.20;99.90;;;;;;5072945;28;20067;-91
2021/12/20 08:54:29;;;;;;;2.33;1.80;;;1.30;99.90;;;;;;5077401;28;20509;-94
2021/12/20 08:56:57;;;;;;;6.55;2.13;;;1.40;99.90;;;;;;5094726;28;20043;-91
2021/12/20 08:59:24;;;;;;;9.30;2.35;;;1.80;99.90;;;;;;5078192;28;20033;-91
2021/12/20 09:01:50;;;;;;;11.23;3.03;;;2.20;99.90;;;;;;5080318;27;21172;-94
2021/12/20 09:04:16;;;;;;;13.50;2.90;;;2.50;99.90;;;;;;5081503;28;20127;-94
2021/12/20 09:06:42;;;;;;;10.82;3.08;;;3.00;99.90;;;;;;5078749;28;20071;-93
2021/12/20 09:09:12;;;;;;;11.23;3.40;;;3.50;99.90;;;;;;5077306;28;20097;-91
2021/12/20 09:11:39;;;;;;;6.72;2.83;;;4.00;99.90;;;;;;5075504;28;20036;-92
2021/12/20 09:14:04;;;;;;;10.98;3.45;;;4.40;99.90;;;;;;5078439;28;20095;-93
2021/12/20 09:16:33;;;;;;;8.45;3.15;;;4.60;99.90;;;;;;5076633;28;20100;-93
2021/12/20 09:23:28;;;;;;;9.35;2.28;;;4.70;99.90;;;;;;5086573;28;20242;-96
2021/12/20 09:30:15;;;;;;;;;;;;;;;;;;;;;
2021/12/20 10:10:50;;;;;;;26.67;4.80;;;8.30;99.90;;;;;;5057152;22;20050;-95
2021/12/20 10:13:26;;;;;;;21.08;4.80;;;8.60;99.90;;;;;;5141418;22;20039;-93
2021/12/20 10:15:56;;;;;;;24.33;4.50;;;8.70;99.90;;;;;;4994968;28;20160;-93
2021/12/20 10:18:24;;;;;;;18.50;4.30;;;8.80;99.90;;;;;;4974161;28;20041;-93
2021/12/20 10:20:52;;;;;;;20.58;4.85;;;8.70;99.90;;;;;;4981530;28;20046;-92
2021/12/20 10:34:59;;;;;;;20.80;4.88;;;8.20;99.90;;;;;;5365857;22;20088;-94
2021/12/20 10:37:38;;;;;;;22.27;5.05;;;7.70;99.90;;;;;;4997231;28;20045;-95
2021/12/20 10:40:04;;;;;;;25.42;5.63;;;7.30;99.90;;;;;;4990526;28;20049;-93
2021/12/20 10:42:40;;;;;;;28.85;5.80;;;7.10;99.90;;;;;;4997595;28;20060;-92
2021/12/20 10:45:27;;;;;;;24.25;5.35;;;6.70;99.90;;;;;;4994864;28;20182;-91
2021/12/20 10:47:54;;;;;;;19.55;4.18;;;6.40;99.90;;;;;;4994905;28;20122;-94
2021/12/20 10:50:32;;;;;;;22.10;5.10;;;6.20;99.90;;;;;;4995261;28;20092;-90
2021/12/20 10:53:22;;;;;;;29.77;5.40;;;6.00;99.90;;;;;;4994856;28;20049;-95
2021/12/20 10:55:50;;;;;;;23.63;5.00;;;6.10;99.90;;;;;;5013324;28;20148;-95
2021/12/20 10:58:29;;;;;;;28.73;5.45;;;6.10;99.90;;;;;;4997769;28;20615;-96
2021/12/20 11:01:17;;;;;;;24.05;4.25;;;6.40;99.90;;;;;;5001186;28;20052;-93
2021/12/20 11:03:58;;;;;;;25.88;4.53;;;6.50;99.90;;;;;;4991749;28;20048;-90
2021/12/20 11:06:26;;;;;;;21.75;4.22;;;6.80;99.90;;;;;;4994848;28;20045;-92
2021/12/20 11:09:05;;;;;;;21.73;3.92;;;6.90;99.90;;;;;;4995892;28;20033;-91
2021/12/20 11:11:41;;;;;;;22.40;4.10;;;7.10;99.90;;;;;;4988197;28;20057;-92
2021/12/20 11:14:08;;;;;;;18.63;4.22;;;7.30;99.90;;;;;;5005993;28;20033;-92
2021/12/20 11:16:46;;;;;;;17.65;3.53;;;7.40;99.90;;;;;;4990100;28;20148;-92
2021/12/20 11:19:13;;;;;;;26.17;3.75;;;7.60;99.90;;;;;;5004895;28;20037;-92
2021/12/20 11:22:05;;;;;;;19.63;3.83;;;7.50;99.90;;;;;;4990190;28;20068;-92
2021/12/20 11:24:49;;;;;;;13.27;2.90;;;7.60;99.90;;;;;;5007084;28;20451;-92
2021/12/20 11:27:22;;;;;;;11.68;2.75;;;7.50;99.90;;;;;;5005480;28;20136;-83
2021/12/20 11:29:50;;;;;;;15.98;2.50;;;7.70;99.90;;;;;;4986134;28;20041;-83
2021/12/20 11:32:17;;;;;;;13.30;2.90;;;7.90;99.90;;;;;;5002463;28;20045;-83
2021/12/20 11:34:43;;;;;;;13.98;2.50;;;8.00;99.90;;;;;;5009441;28;20084;-84
2021/12/20 11:37:15;;;;;;;19.35;3.30;;;8.20;99.90;;;;;;5004181;28;20432;-84
2021/12/20 11:39:42;;;;;;;14.38;2.50;;;8.20;99.90;;;;;;4989655;28;20128;-85
2021/12/20 11:42:08;;;;;;;12.00;2.40;;;7.90;99.90;;;;;;5024587;28;20509;-83
2021/12/20 11:44:37;;;;;;;15.77;2.88;;;7.60;99.90;;;;;;4992029;28;20048;-83
2021/12/20 11:47:08;;;;;;;17.52;3.70;;;7.50;99.90;;;;;;4992861;28;20037;-83
2021/12/20 11:49:35;;;;;;;17.50;2.85;;;7.30;99.90;;;;;;4991095;28;20037;-83
2021/12/20 11:52:12;;;;;;;14.90;2.20;;;7.00;99.90;;;;;;4993203;28;20033;-82
2021/12/20 11:54:50;;;;;;;5.57;1.83;;;6.80;99.90;;;;;;5009002;28;20073;-83
2021/12/20 11:57:27;;;;;;;12.50;2.17;;;6.50;99.90;;;;;;4993447;28;20479;-83
2021/12/20 11:59:56;;;;;;;14.50;2.33;;;6.30;99.90;;;;;;4992906;28;20059;-83
2021/12/20 12:02:33;;;;;;;9.23;2.33;;;6.20;99.90;;;;;;5010095;28;20048;-83
2021/12/20 12:05:06;;;;;;;10.20;2.40;;;6.10;99.90;;;;;;4993324;28;20149;-83
2021/12/20 12:07:38;;;;;;;8.50;2.07;;;6.10;99.90;;;;;;5009553;28;20041;-83
2021/12/20 12:10:15;;;;;;;7.88;1.70;;;6.00;99.90;;;;;;4992199;28;20719;-83
2021/12/20 12:12:44;;;;;;;8.98;1.88;;;6.00;99.90;;;;;;5006365;28;20033;-83
2021/12/20 12:15:28;;;;;;;6.03;1.88;;;5.90;99.90;;;;;;4993601;28;20124;-83
2021/12/20 12:17:55;;;;;;;;;;;5.90;99.90;;;;;;4993271;28;20534;-84
2021/12/20 12:20:43;;;;;;;12.38;2.90;;;5.90;99.90;;;;;;4993166;28;19921;-83
2021/12/20 12:23:21;;;;;;;11.85;2.65;;;5.90;99.90;;;;;;4992880;28;20511;-83
2021/12/20 12:25:53;;;;;;;6.13;2.28;;;5.90;99.90;;;;;;4992012;28;20030;-83
2021/12/20 12:28:23;;;;;;;11.52;2.53;;;5.90;99.90;;;;;;4993586;28;20037;-83
2021/12/20 12:31:04;;;;;;;9.73;2.20;;;5.80;99.90;;;;;;4996632;28;20080;-83
2021/12/20 12:33:33;;;;;;;24.42;3.13;;;5.80;99.90;;;;;;5013293;28;20116;-84
2021/12/20 12:36:23;;;;;;;5.05;1.77;;;5.80;99.90;;;;;;4996712;28;20052;-83
2021/12/20 12:38:56;;;;;;;11.23;2.15;;;5.80;99.90;;;;;;4988519;28;20081;-84
2021/12/20 12:41:29;;;;;;;8.65;2.80;;;5.80;99.90;;;;;;4989729;28;20402;-83
2021/12/20 12:43:59;;;;;;;10.98;2.17;;;5.90;99.90;;;;;;5007827;28;20046;-82
2021/12/20 12:46:42;;;;;;;11.32;2.40;;;5.80;99.90;;;;;;5013329;28;20055;-82
2021/12/20 12:49:23;;;;;;;7.57;1.80;;;5.90;99.90;;;;;;5000262;28;20045;-83
2021/12/20 12:51:50;;;;;;;8.40;2.10;;;5.90;99.90;;;;;;5012806;28;20041;-83
2021/12/20 12:54:41;;;;;;;3.30;1.23;;;5.90;99.90;;;;;;4996690;28;20041;-82
2021/12/20 12:57:10;;;;;;;4.63;1.50;;;6.00;96.40;;;;;;5012422;28;20084;-82
2021/12/20 12:59:54;;;;;;;8.00;1.40;;;6.00;94.90;;;;;;4996347;28;20034;-82
2021/12/20 13:02:23;;;;;;;;;;;6.00;94.60;;;;;;4996253;28;20037;-84
2021/12/20 13:04:51;;;;;;;7.70;1.67;;;6.00;99.90;;;;;;4996519;28;20379;-83
2021/12/20 13:07:32;;;;;;;5.97;1.30;;;6.00;99.90;;;;;;4989527;28;20047;-84
2021/12/20 13:10:03;;;;;;;8.30;1.70;;;6.00;99.90;;;;;;4996207;28;20128;-82
2021/12/20 13:12:44;;;;;;;7.70;2.22;;;6.00;99.90;;;;;;5012535;28;20388;-84
2021/12/20 13:15:25;;;;;;;6.80;1.83;;;5.90;99.90;;;;;;4994938;28;20088;-82
2021/12/20 13:17:56;;;;;;;5.50;1.92;;;5.90;99.90;;;;;;5012252;28;20407;-82
2021/12/20 13:23:06;;;;;;;5.03;1.60;;;5.80;99.90;;;;;;5012452;28;20153;-84
2021/12/20 13:25:46;;;;;;;3.83;1.30;;;5.90;99.90;;;;;;4996633;28;20038;-84
2021/12/20 13:28:22;;;;;;;8.75;1.88;;;5.80;99.80;;;;;;5005136;28;20427;-83
2021/12/20 13:30:51;;;;;;;7.82;1.92;;;5.80;98.80;;;;;;4996040;28;20124;-83
2021/12/20 13:33:20;;;;;;;6.65;1.30;;;5.70;99.70;;;;;;4996304;28;20034;-82
2021/12/20 13:35:46;;;;;;;3.33;1.60;;;5.80;99.90;;;;;;4995456;28;20041;-83
2021/12/20 13:38:18;;;;;;;2.55;1.17;;;5.80;98.10;;;;;;4995053;28;20192;-82
2021/12/20 13:40:52;;;;;;;6.45;1.65;;;5.80;96.30;;;;;;4994445;28;20136;-83
2021/12/20 13:43:25;;;;;;;8.25;1.48;;;5.80;99.30;;;;;;4989403;28;20084;-82
2021/12/20 13:46:04;;;;;;;5.68;1.75;;;5.80;97.40;;;;;;4993776;28;20073;-84
2021/12/20 13:48:29;;;;;;;4.43;1.35;;;5.70;99.40;;;;;;5009912;28;20499;-84
2021/12/20 13:50:55;;;;;;;3.90;1.40;;;5.70;99.90;;;;;;4995557;28;20064;-84
2021/12/20 13:53:32;;;;;;;3.53;1.35;;;5.60;99.90;;;;;;4996022;28;20561;-84
2021/12/20 13:56:00;;;;;;;4.50;1.27;;;5.60;95.30;;;;;;4992714;28;20037;-83
2021/12/20 13:58:27;;;;;;;7.20;1.52;;;5.60;97.50;;;;;;4995783;28;20033;-84
2021/12/20 14:00:54;;;;;;;7.10;1.60;;;5.50;97.50;;;;;;5010511;28;20045;-84
2021/12/20 14:03:20;;;;;;;8.52;2.00;;;5.50;98.10;;;;;;4995581;28;20100;-84
2021/12/20 14:05:47;;;;;;;5.13;1.40;;;5.40;98.60;;;;;;4994755;28;20088;-83
2021/12/20 14:08:22;;;;;;;3.83;1.38;;;5.30;99.90;;;;;;4994370;28;20065;-83
2021/12/20 14:10:53;;;;;;;7.30;1.52;;;5.40;99.90;;;;;;4996544;28;20064;-83
2021/12/20 14:13:21;;;;;;;4.75;1.60;;;5.30;99.90;;;;;;4995352;28;20418;-83